createdAt,value
2017-09-12T00:00:28.830Z,0
2017-09-12T00:01:28.841Z,0
2017-09-12T00:02:28.352Z,0
2017-09-12T00:03:29.460Z,0
2017-09-12T00:04:30.095Z,0
2017-09-12T00:05:29.563Z,0
2017-09-12T00:06:29.874Z,0
2017-09-12T00:07:29.050Z,0
2017-09-12T00:08:29.368Z,0
2017-09-12T00:09:30.359Z,0
2017-09-12T00:10:30.055Z,0
2017-09-12T00:11:30.135Z,0
2017-09-12T00:12:30.188Z,0
2017-09-12T00:13:30.829Z,0
2017-09-12T00:14:30.823Z,0
2017-09-12T00:15:31.501Z,0
2017-09-12T00:16:31.533Z,0
2017-09-12T00:17:31.561Z,0
2017-09-12T00:18:31.294Z,0
2017-09-12T00:19:31.655Z,0
2017-09-12T00:20:31.659Z,0
2017-09-12T00:21:31.697Z,0
2017-09-12T00:22:32.063Z,0
2017-09-12T00:23:31.764Z,0
2017-09-12T00:24:32.127Z,0
2017-09-12T00:25:31.826Z,0
2017-09-12T00:26:31.244Z,0
2017-09-12T00:27:31.881Z,0
2017-09-12T00:28:31.926Z,0
2017-09-12T00:29:31.636Z,0
2017-09-12T00:30:32.019Z,0
2017-09-12T00:31:32.397Z,0
2017-09-12T00:32:32.422Z,0
2017-09-12T00:33:32.117Z,0
2017-09-12T00:34:32.463Z,0
2017-09-12T00:35:32.827Z,0
2017-09-12T00:36:32.848Z,0
2017-09-12T00:37:32.288Z,0
2017-09-12T00:38:33.054Z,0
2017-09-12T00:39:32.779Z,0
2017-09-12T00:40:33.094Z,0
2017-09-12T00:41:33.111Z,0
2017-09-12T00:42:32.857Z,0
2017-09-12T00:43:33.235Z,0
2017-09-12T00:44:33.525Z,0
2017-09-12T00:45:33.866Z,0
2017-09-12T00:46:33.898Z,0
2017-09-12T00:47:32.994Z,0
2017-09-12T00:48:33.350Z,0
2017-09-12T00:49:33.693Z,0
2017-09-12T00:50:33.750Z,0
2017-09-12T00:51:34.055Z,0
2017-09-12T00:52:33.158Z,0
2017-09-12T00:53:33.578Z,0
2017-09-12T00:54:34.140Z,0
2017-09-12T00:55:33.661Z,0
2017-09-12T00:56:34.317Z,0
2017-09-12T00:57:34.328Z,0
2017-09-12T00:58:34.031Z,0
2017-09-12T00:59:34.062Z,0
2017-09-12T01:00:34.090Z,0
2017-09-12T01:01:34.134Z,0
2017-09-12T01:02:33.563Z,0
2017-09-12T01:03:34.273Z,0
2017-09-12T01:04:34.998Z,0
2017-09-12T01:05:33.692Z,0
2017-09-12T01:06:34.690Z,0
2017-09-12T01:07:34.705Z,0
2017-09-12T01:08:34.401Z,0
2017-09-12T01:09:34.496Z,0
2017-09-12T01:10:34.459Z,0
2017-09-12T01:11:34.501Z,0
2017-09-12T01:12:34.869Z,0
2017-09-12T01:13:34.312Z,0
2017-09-12T01:14:34.953Z,0
2017-09-12T01:15:35.324Z,0
2017-09-12T01:16:34.994Z,0
2017-09-12T01:17:35.635Z,0
2017-09-12T01:18:35.045Z,0
2017-09-12T01:19:35.695Z,0
2017-09-12T01:20:36.040Z,0
2017-09-12T01:21:36.051Z,0
2017-09-12T01:22:35.781Z,0
2017-09-12T01:23:36.735Z,0
2017-09-12T01:24:36.770Z,0
2017-09-12T01:25:36.498Z,0
2017-09-12T01:26:36.235Z,0
2017-09-12T01:27:36.892Z,0
2017-09-12T01:28:36.905Z,0
2017-09-12T01:29:36.686Z,0
2017-09-12T01:30:36.721Z,0
2017-09-12T01:31:37.055Z,0
2017-09-12T01:32:36.831Z,0
2017-09-12T01:33:37.725Z,0
2017-09-12T01:34:38.056Z,0
2017-09-12T01:35:38.102Z,0
2017-09-12T01:36:38.161Z,0
2017-09-12T01:37:37.862Z,0
2017-09-12T01:38:37.939Z,0
2017-09-12T01:39:37.933Z,0
2017-09-12T01:40:38.261Z,0
2017-09-12T01:41:37.698Z,0
2017-09-12T01:42:37.990Z,0
2017-09-12T01:43:38.996Z,0
2017-09-12T01:44:37.726Z,0
2017-09-12T01:45:39.030Z,0
2017-09-12T01:46:38.724Z,0
2017-09-12T01:47:38.494Z,0
2017-09-12T01:48:38.840Z,0
2017-09-12T01:49:39.196Z,0
2017-09-12T01:50:39.554Z,0
2017-09-12T01:51:39.894Z,0
2017-09-12T01:52:39.935Z,0
2017-09-12T01:53:39.947Z,0
2017-09-12T01:54:39.625Z,0
2017-09-12T01:55:39.659Z,0
2017-09-12T01:56:39.730Z,0
2017-09-12T01:57:39.764Z,0
2017-09-12T01:58:39.791Z,0
2017-09-12T01:59:39.534Z,0
2017-09-12T02:00:39.896Z,0
2017-09-12T02:01:40.616Z,0
2017-09-12T02:02:41.193Z,0
2017-09-12T02:03:41.361Z,0
2017-09-12T02:04:41.299Z,0
2017-09-12T02:05:41.309Z,0
2017-09-12T02:06:41.333Z,0
2017-09-12T02:07:41.061Z,0
2017-09-12T02:08:41.429Z,0
2017-09-12T02:09:41.148Z,0
2017-09-12T02:10:41.434Z,0
2017-09-12T02:11:41.542Z,0
2017-09-12T02:12:41.829Z,0
2017-09-12T02:13:41.889Z,0
2017-09-12T02:14:41.454Z,0
2017-09-12T02:15:41.326Z,0
2017-09-12T02:16:41.658Z,0
2017-09-12T02:17:41.400Z,0
2017-09-12T02:18:42.064Z,0
2017-09-12T02:19:42.078Z,0
2017-09-12T02:20:42.161Z,0
2017-09-12T02:21:41.830Z,0
2017-09-12T02:22:42.131Z,0
2017-09-12T02:23:41.896Z,0
2017-09-12T02:24:42.292Z,0
2017-09-12T02:25:42.630Z,0
2017-09-12T02:26:42.154Z,0
2017-09-12T02:27:42.799Z,0
2017-09-12T02:28:43.135Z,0
2017-09-12T02:29:43.167Z,0
2017-09-12T02:30:43.199Z,0
2017-09-12T02:31:42.931Z,0
2017-09-12T02:32:42.644Z,0
2017-09-12T02:33:43.253Z,0
2017-09-12T02:34:43.649Z,0
2017-09-12T02:35:43.065Z,0
2017-09-12T02:36:43.404Z,0
2017-09-12T02:37:43.781Z,0
2017-09-12T02:38:43.806Z,0
2017-09-12T02:39:43.901Z,0
2017-09-12T02:40:43.247Z,0
2017-09-12T02:41:43.661Z,0
2017-09-12T02:42:43.639Z,0
2017-09-12T02:43:43.987Z,0
2017-09-12T02:44:43.710Z,0
2017-09-12T02:45:43.406Z,0
2017-09-12T02:46:43.738Z,0
2017-09-12T02:47:43.772Z,0
2017-09-12T02:48:44.118Z,0
2017-09-12T02:49:43.248Z,0
2017-09-12T02:50:43.845Z,0
2017-09-12T02:51:43.920Z,0
2017-09-12T02:52:43.628Z,0
2017-09-12T02:53:44.598Z,0
2017-09-12T02:54:44.614Z,0
2017-09-12T02:55:44.004Z,0
2017-09-12T02:56:44.979Z,0
2017-09-12T02:57:44.336Z,0
2017-09-12T02:58:45.301Z,0
2017-09-12T02:59:45.009Z,0
2017-09-12T03:00:45.040Z,0
2017-09-12T03:01:45.047Z,0
2017-09-12T03:02:45.057Z,0
2017-09-12T03:03:45.784Z,0
2017-09-12T03:04:45.186Z,0
2017-09-12T03:05:45.441Z,0
2017-09-12T03:06:45.507Z,0
2017-09-12T03:07:45.838Z,0
2017-09-12T03:08:45.845Z,0
2017-09-12T03:09:45.870Z,0
2017-09-12T03:10:45.683Z,0
2017-09-12T03:11:46.314Z,0
2017-09-12T03:12:45.677Z,0
2017-09-12T03:13:46.349Z,0
2017-09-12T03:14:45.764Z,0
2017-09-12T03:15:45.858Z,0
2017-09-12T03:16:46.827Z,0
2017-09-12T03:17:46.842Z,0
2017-09-12T03:18:46.910Z,0
2017-09-12T03:19:46.637Z,0
2017-09-12T03:20:47.312Z,0
2017-09-12T03:21:47.369Z,0
2017-09-12T03:22:47.044Z,0
2017-09-12T03:23:47.071Z,0
2017-09-12T03:24:47.179Z,0
2017-09-12T03:25:47.170Z,0
2017-09-12T03:26:47.815Z,0
2017-09-12T03:27:48.174Z,0
2017-09-12T03:28:48.238Z,0
2017-09-12T03:29:47.642Z,0
2017-09-12T03:30:48.012Z,0
2017-09-12T03:31:48.757Z,0
2017-09-12T03:32:48.711Z,0
2017-09-12T03:33:49.050Z,0
2017-09-12T03:34:48.738Z,0
2017-09-12T03:35:48.806Z,0
2017-09-12T03:36:48.854Z,0
2017-09-12T03:37:49.468Z,0
2017-09-12T03:38:49.530Z,0
2017-09-12T03:39:48.903Z,0
2017-09-12T03:40:49.574Z,0
2017-09-12T03:41:49.554Z,0
2017-09-12T03:42:49.942Z,0
2017-09-12T03:43:49.650Z,0
2017-09-12T03:44:49.673Z,0
2017-09-12T03:45:50.022Z,0
2017-09-12T03:46:49.756Z,0
2017-09-12T03:47:49.827Z,0
2017-09-12T03:48:50.093Z,0
2017-09-12T03:49:49.814Z,0
2017-09-12T03:50:50.454Z,0
2017-09-12T03:51:50.456Z,0
2017-09-12T03:52:49.874Z,0
2017-09-12T03:53:50.950Z,0
2017-09-12T03:54:50.252Z,0
2017-09-12T03:55:50.630Z,0
2017-09-12T03:56:51.688Z,0
2017-09-12T03:57:51.693Z,0
2017-09-12T03:58:51.086Z,0
2017-09-12T03:59:51.775Z,0
2017-09-12T04:00:51.163Z,0
2017-09-12T04:01:51.813Z,0
2017-09-12T04:02:51.683Z,0
2017-09-12T04:03:51.626Z,0
2017-09-12T04:04:51.646Z,0
2017-09-12T04:05:51.661Z,0
2017-09-12T04:06:51.718Z,0
2017-09-12T04:07:52.416Z,0
2017-09-12T04:08:52.465Z,0
2017-09-12T04:09:52.487Z,0
2017-09-12T04:10:51.874Z,0
2017-09-12T04:11:52.549Z,0
2017-09-12T04:12:52.624Z,0
2017-09-12T04:13:52.899Z,0
2017-09-12T04:14:52.660Z,0
2017-09-12T04:15:52.958Z,0
2017-09-12T04:16:52.988Z,0
2017-09-12T04:17:52.770Z,0
2017-09-12T04:18:52.432Z,0
2017-09-12T04:19:53.098Z,0
2017-09-12T04:20:53.131Z,0
2017-09-12T04:21:53.160Z,0
2017-09-12T04:22:53.766Z,0
2017-09-12T04:23:53.822Z,0
2017-09-12T04:24:53.237Z,0
2017-09-12T04:25:54.192Z,0
2017-09-12T04:26:54.231Z,0
2017-09-12T04:27:53.957Z,0
2017-09-12T04:28:54.300Z,5
2017-09-12T04:29:54.039Z,5
2017-09-12T04:30:54.326Z,5
2017-09-12T04:31:54.391Z,5
2017-09-12T04:32:54.736Z,5
2017-09-12T04:33:55.032Z,5
2017-09-12T04:34:55.734Z,10
2017-09-12T04:35:55.376Z,10
2017-09-12T04:36:55.757Z,10
2017-09-12T04:37:54.847Z,10
2017-09-12T04:38:55.785Z,10
2017-09-12T04:39:55.221Z,15
2017-09-12T04:40:55.878Z,15
2017-09-12T04:41:55.250Z,15
2017-09-12T04:42:55.929Z,15
2017-09-12T04:43:56.264Z,20
2017-09-12T04:44:55.993Z,20
2017-09-12T04:45:55.956Z,25
2017-09-12T04:46:56.662Z,25
2017-09-12T04:47:56.688Z,25
2017-09-12T04:48:56.715Z,30
2017-09-12T04:49:56.168Z,30
2017-09-12T04:50:56.523Z,30
2017-09-12T04:51:56.864Z,30
2017-09-12T04:52:56.587Z,30
2017-09-12T04:53:56.976Z,30
2017-09-12T04:54:57.304Z,30
2017-09-12T04:55:57.299Z,30
2017-09-12T04:56:57.902Z,30
2017-09-12T04:57:57.631Z,35
2017-09-12T04:58:57.669Z,35
2017-09-12T04:59:58.002Z,35
2017-09-12T05:00:57.720Z,35
2017-09-12T05:01:57.773Z,35
2017-09-12T05:02:58.214Z,35
2017-09-12T05:03:57.843Z,40
2017-09-12T05:04:58.157Z,45
2017-09-12T05:05:58.162Z,45
2017-09-12T05:06:57.917Z,45
2017-09-12T05:07:58.586Z,50
2017-09-12T05:08:58.029Z,60
2017-09-12T05:09:58.630Z,60
2017-09-12T05:10:58.659Z,60
2017-09-12T05:11:57.829Z,60
2017-09-12T05:12:58.384Z,60
2017-09-12T05:13:58.426Z,50
2017-09-12T05:14:58.806Z,50
2017-09-12T05:15:58.605Z,45
2017-09-12T05:16:58.876Z,50
2017-09-12T05:17:58.935Z,55
2017-09-12T05:18:58.648Z,60
2017-09-12T05:19:58.327Z,65
2017-09-12T05:20:58.324Z,65
2017-09-12T05:21:59.060Z,60
2017-09-12T05:22:59.039Z,65
2017-09-12T05:23:58.759Z,80
2017-09-12T05:24:58.542Z,100
2017-09-12T05:25:59.040Z,105
2017-09-12T05:26:59.395Z,115
2017-09-12T05:27:59.395Z,125
2017-09-12T05:29:00.180Z,125
2017-09-12T05:30:00.216Z,125
2017-09-12T05:31:00.152Z,125
2017-09-12T05:32:00.182Z,130
2017-09-12T05:33:00.828Z,135
2017-09-12T05:34:00.180Z,135
2017-09-12T05:35:00.573Z,145
2017-09-12T05:36:00.969Z,155
2017-09-12T05:37:01.286Z,150
2017-09-12T05:38:00.992Z,145
2017-09-12T05:39:01.636Z,145
2017-09-12T05:40:01.386Z,150
2017-09-12T05:41:01.692Z,160
2017-09-12T05:42:01.415Z,185
2017-09-12T05:43:01.151Z,195
2017-09-12T05:44:01.551Z,215
2017-09-12T05:45:01.536Z,220
2017-09-12T05:46:01.844Z,460
2017-09-12T05:47:01.900Z,205
2017-09-12T05:48:01.878Z,185
2017-09-12T05:49:01.625Z,185
2017-09-12T05:50:02.931Z,195
2017-09-12T05:51:02.699Z,175
2017-09-12T05:52:02.355Z,175
2017-09-12T05:53:02.412Z,165
2017-09-12T05:54:02.780Z,165
2017-09-12T05:55:02.784Z,175
2017-09-12T05:56:02.845Z,180
2017-09-12T05:57:03.221Z,180
2017-09-12T05:58:02.902Z,185
2017-09-12T05:59:03.255Z,195
2017-09-12T06:00:03.016Z,195
2017-09-12T06:01:03.009Z,195
2017-09-12T06:02:02.729Z,200
2017-09-12T06:03:04.053Z,205
2017-09-12T06:04:03.962Z,215
2017-09-12T06:05:03.769Z,275
2017-09-12T06:06:04.120Z,225
2017-09-12T06:07:04.805Z,230
2017-09-12T06:08:04.847Z,245
2017-09-12T06:09:04.921Z,255
2017-09-12T06:10:04.626Z,250
2017-09-12T06:11:04.918Z,245
2017-09-12T06:12:04.359Z,245
2017-09-12T06:13:04.982Z,255
2017-09-12T06:14:05.023Z,260
2017-09-12T06:15:05.259Z,240
2017-09-12T06:16:05.175Z,225
2017-09-12T06:17:05.169Z,210
2017-09-12T06:18:05.252Z,220
2017-09-12T06:19:04.948Z,225
2017-09-12T06:20:05.007Z,225
2017-09-12T06:21:04.996Z,220
2017-09-12T06:22:04.960Z,220
2017-09-12T06:23:05.380Z,220
2017-09-12T06:24:05.349Z,220
2017-09-12T06:25:05.087Z,230
2017-09-12T06:26:05.423Z,235
2017-09-12T06:27:05.153Z,235
2017-09-12T06:28:05.179Z,230
2017-09-12T06:29:05.586Z,240
2017-09-12T06:30:06.528Z,265
2017-09-12T06:31:05.619Z,290
2017-09-12T06:32:06.010Z,310
2017-09-12T06:33:06.682Z,350
2017-09-12T06:34:06.755Z,360
2017-09-12T06:35:05.795Z,815
2017-09-12T06:36:06.765Z,1160
2017-09-12T06:37:07.519Z,630
2017-09-12T06:38:07.517Z,1385
2017-09-12T06:39:07.217Z,630
2017-09-12T06:40:07.301Z,665
2017-09-12T06:41:08.065Z,660
2017-09-12T06:42:07.763Z,535
2017-09-12T06:43:07.511Z,415
2017-09-12T06:44:07.703Z,350
2017-09-12T06:45:08.515Z,310
2017-09-12T06:46:08.879Z,280
2017-09-12T06:47:08.840Z,260
2017-09-12T06:48:08.820Z,250
2017-09-12T06:49:08.559Z,250
2017-09-12T06:50:08.940Z,260
2017-09-12T06:51:07.705Z,270
2017-09-12T06:52:08.958Z,280
2017-09-12T06:53:08.709Z,285
2017-09-12T06:54:08.766Z,285
2017-09-12T06:55:09.207Z,285
2017-09-12T06:56:09.117Z,270
2017-09-12T06:57:08.822Z,275
2017-09-12T06:58:08.828Z,270
2017-09-12T06:59:08.555Z,285
2017-09-12T07:00:10.020Z,295
2017-09-12T07:01:08.321Z,305
2017-09-12T07:02:08.983Z,320
2017-09-12T07:03:09.654Z,330
2017-09-12T07:04:08.732Z,335
2017-09-12T07:05:09.102Z,335
2017-09-12T07:06:08.792Z,335
2017-09-12T07:07:09.463Z,335
2017-09-12T07:08:09.855Z,315
2017-09-12T07:09:09.538Z,300
2017-09-12T07:10:09.566Z,305
2017-09-12T07:11:09.963Z,300
2017-09-12T07:12:10.248Z,300
2017-09-12T07:13:09.985Z,305
2017-09-12T07:14:10.341Z,310
2017-09-12T07:15:10.055Z,310
2017-09-12T07:16:10.181Z,315
2017-09-12T07:17:09.824Z,315
2017-09-12T07:18:10.792Z,325
2017-09-12T07:19:10.195Z,335
2017-09-12T07:20:11.284Z,350
2017-09-12T07:21:10.954Z,370
2017-09-12T07:22:11.351Z,395
2017-09-12T07:23:11.337Z,400
2017-09-12T07:24:11.105Z,395
2017-09-12T07:25:11.469Z,390
2017-09-12T07:26:11.445Z,375
2017-09-12T07:27:11.467Z,345
2017-09-12T07:28:10.911Z,330
2017-09-12T07:29:11.222Z,320
2017-09-12T07:30:11.239Z,315
2017-09-12T07:31:11.051Z,305
2017-09-12T07:32:11.493Z,305
2017-09-12T07:33:11.139Z,310
2017-09-12T07:34:11.579Z,310
2017-09-12T07:35:13.379Z,305
2017-09-12T07:36:12.315Z,305
2017-09-12T07:37:12.094Z,295
2017-09-12T07:38:12.475Z,310
2017-09-12T07:39:12.789Z,320
2017-09-12T07:40:12.541Z,315
2017-09-12T07:41:13.232Z,340
2017-09-12T07:42:12.248Z,360
2017-09-12T07:43:12.964Z,365
2017-09-12T07:44:13.292Z,375
2017-09-12T07:45:13.023Z,340
2017-09-12T07:46:13.663Z,315
2017-09-12T07:47:13.142Z,280
2017-09-12T07:48:12.900Z,280
2017-09-12T07:49:13.685Z,300
2017-09-12T07:50:13.312Z,305
2017-09-12T07:51:12.720Z,300
2017-09-12T07:52:13.163Z,300
2017-09-12T07:53:13.912Z,310
2017-09-12T07:54:13.227Z,310
2017-09-12T07:55:13.952Z,310
2017-09-12T07:56:13.866Z,310
2017-09-12T07:57:13.322Z,310
2017-09-12T07:58:13.910Z,320
2017-09-12T07:59:14.345Z,335
2017-09-12T08:00:15.137Z,350
2017-09-12T08:01:14.054Z,360
2017-09-12T08:02:14.113Z,340
2017-09-12T08:03:14.667Z,320
2017-09-12T08:04:14.295Z,305
2017-09-12T08:05:14.749Z,315
2017-09-12T08:06:14.786Z,335
2017-09-12T08:07:14.835Z,345
2017-09-12T08:08:15.257Z,355
2017-09-12T08:09:15.925Z,340
2017-09-12T08:10:15.708Z,335
2017-09-12T08:11:15.724Z,340
2017-09-12T08:12:15.443Z,330
2017-09-12T08:13:16.180Z,330
2017-09-12T08:14:15.547Z,370
2017-09-12T08:15:16.180Z,430
2017-09-12T08:16:16.568Z,445
2017-09-12T08:17:16.509Z,460
2017-09-12T08:18:16.911Z,445
2017-09-12T08:19:16.617Z,475
2017-09-12T08:20:16.132Z,520
2017-09-12T08:21:17.122Z,615
2017-09-12T08:22:16.845Z,660
2017-09-12T08:23:17.261Z,670
2017-09-12T08:24:17.025Z,690
2017-09-12T08:25:17.355Z,705
2017-09-12T08:26:17.384Z,775
2017-09-12T08:27:17.490Z,825
2017-09-12T08:28:18.128Z,1050
2017-09-12T08:29:17.679Z,1545
2017-09-12T08:30:17.429Z,1240
2017-09-12T08:31:18.122Z,1055
2017-09-12T08:32:18.816Z,1550
2017-09-12T08:33:18.948Z,2245
2017-09-12T08:34:18.887Z,1315
2017-09-12T08:35:18.653Z,1055
2017-09-12T08:36:18.296Z,925
2017-09-12T08:37:18.985Z,1175
2017-09-12T08:38:18.499Z,800
2017-09-12T08:39:19.599Z,765
2017-09-12T08:40:18.930Z,855
2017-09-12T08:41:19.937Z,940
2017-09-12T08:42:19.686Z,1025
2017-09-12T08:43:19.656Z,935
2017-09-12T08:44:19.417Z,865
2017-09-12T08:45:20.082Z,1520
2017-09-12T08:46:20.422Z,1370
2017-09-12T08:47:20.195Z,1220
2017-09-12T08:48:19.889Z,1325
2017-09-12T08:49:19.929Z,1215
2017-09-12T08:50:20.621Z,1460
2017-09-12T08:51:20.978Z,2690
2017-09-12T08:52:20.699Z,1505
2017-09-12T08:53:21.463Z,1570
2017-09-12T08:54:21.431Z,1565
2017-09-12T08:55:20.827Z,2025
2017-09-12T08:56:21.861Z,1685
2017-09-12T08:57:21.236Z,1210
2017-09-12T08:58:21.589Z,1575
2017-09-12T08:59:22.063Z,1980
2017-09-12T09:00:21.673Z,1710
2017-09-12T09:01:21.080Z,1135
2017-09-12T09:02:21.926Z,1005
2017-09-12T09:03:22.027Z,800
2017-09-12T09:04:21.957Z,555
2017-09-12T09:05:22.316Z,450
2017-09-12T09:06:21.833Z,455
2017-09-12T09:07:22.861Z,550
2017-09-12T09:08:22.575Z,635
2017-09-12T09:09:22.921Z,590
2017-09-12T09:10:22.657Z,660
2017-09-12T09:11:23.012Z,655
2017-09-12T09:12:22.104Z,835
2017-09-12T09:13:22.684Z,1005
2017-09-12T09:14:22.846Z,995
2017-09-12T09:15:22.592Z,940
2017-09-12T09:16:22.293Z,895
2017-09-12T09:17:23.634Z,935
2017-09-12T09:18:23.710Z,1155
2017-09-12T09:19:22.995Z,1150
2017-09-12T09:20:23.702Z,890
2017-09-12T09:21:23.220Z,1555
2017-09-12T09:22:23.779Z,1890
2017-09-12T09:23:23.570Z,2285
2017-09-12T09:24:23.583Z,2105
2017-09-12T09:25:24.247Z,2385
2017-09-12T09:26:24.281Z,2305
2017-09-12T09:27:24.315Z,2335
2017-09-12T09:28:24.044Z,2345
2017-09-12T09:29:24.123Z,2350
2017-09-12T09:30:24.454Z,2340
2017-09-12T09:31:23.882Z,2360
2017-09-12T09:32:24.885Z,2245
2017-09-12T09:33:24.567Z,2385
2017-09-12T09:34:24.900Z,2520
2017-09-12T09:35:24.744Z,2510
2017-09-12T09:36:25.013Z,2330
2017-09-12T09:37:24.780Z,2325
2017-09-12T09:38:25.728Z,2355
2017-09-12T09:39:24.871Z,2390
2017-09-12T09:40:25.565Z,2350
2017-09-12T09:41:25.264Z,1970
2017-09-12T09:42:25.656Z,1570
2017-09-12T09:43:25.979Z,2425
2017-09-12T09:44:26.034Z,965
2017-09-12T09:45:26.131Z,1035
2017-09-12T09:46:25.810Z,910
2017-09-12T09:47:26.230Z,785
2017-09-12T09:48:25.868Z,895
2017-09-12T09:49:25.322Z,875
2017-09-12T09:50:26.285Z,800
2017-09-12T09:51:25.975Z,785
2017-09-12T09:52:26.040Z,830
2017-09-12T09:53:26.056Z,815
2017-09-12T09:54:25.762Z,775
2017-09-12T09:55:26.776Z,735
2017-09-12T09:56:26.817Z,720
2017-09-12T09:57:26.667Z,715
2017-09-12T09:58:26.577Z,730
2017-09-12T09:59:26.658Z,730
2017-09-12T10:00:26.668Z,685
2017-09-12T10:01:26.994Z,635
2017-09-12T10:02:27.069Z,615
2017-09-12T10:03:26.791Z,620
2017-09-12T10:04:27.033Z,610
2017-09-12T10:05:26.597Z,615
2017-09-12T10:06:27.578Z,630
2017-09-12T10:07:27.369Z,620
2017-09-12T10:08:27.072Z,625
2017-09-12T10:09:28.109Z,690
2017-09-12T10:10:27.573Z,720
2017-09-12T10:11:27.683Z,750
2017-09-12T10:12:27.702Z,770
2017-09-12T10:13:28.396Z,785
2017-09-12T10:14:28.425Z,805
2017-09-12T10:15:28.774Z,905
2017-09-12T10:16:28.498Z,800
2017-09-12T10:17:28.551Z,735
2017-09-12T10:18:28.261Z,770
2017-09-12T10:19:28.296Z,795
2017-09-12T10:20:28.298Z,800
2017-09-12T10:21:28.993Z,785
2017-09-12T10:22:28.722Z,770
2017-09-12T10:23:29.416Z,745
2017-09-12T10:24:29.404Z,710
2017-09-12T10:25:29.141Z,740
2017-09-12T10:26:29.533Z,745
2017-09-12T10:27:29.559Z,730
2017-09-12T10:28:29.901Z,745
2017-09-12T10:29:29.036Z,665
2017-09-12T10:30:29.566Z,720
2017-09-12T10:31:29.697Z,730
2017-09-12T10:32:29.406Z,690
2017-09-12T10:33:29.777Z,630
2017-09-12T10:34:29.523Z,685
2017-09-12T10:35:30.222Z,650
2017-09-12T10:36:29.920Z,570
2017-09-12T10:37:30.920Z,490
2017-09-12T10:38:30.289Z,490
2017-09-12T10:39:30.967Z,520
2017-09-12T10:40:30.363Z,620
2017-09-12T10:41:31.027Z,795
2017-09-12T10:42:30.507Z,825
2017-09-12T10:43:30.872Z,865
2017-09-12T10:44:31.534Z,1095
2017-09-12T10:45:31.528Z,955
2017-09-12T10:46:31.565Z,1005
2017-09-12T10:47:31.935Z,915
2017-09-12T10:48:31.977Z,890
2017-09-12T10:49:32.000Z,825
2017-09-12T10:50:31.736Z,835
2017-09-12T10:51:32.740Z,830
2017-09-12T10:52:32.101Z,860
2017-09-12T10:53:32.778Z,925
2017-09-12T10:54:32.528Z,970
2017-09-12T10:55:32.521Z,755
2017-09-12T10:56:32.841Z,730
2017-09-12T10:57:32.883Z,700
2017-09-12T10:58:32.907Z,875
2017-09-12T10:59:32.121Z,860
2017-09-12T11:00:33.075Z,735
2017-09-12T11:01:34.066Z,685
2017-09-12T11:02:33.479Z,600
2017-09-12T11:03:33.872Z,555
2017-09-12T11:04:34.499Z,510
2017-09-12T11:05:34.252Z,520
2017-09-12T11:06:34.250Z,525
2017-09-12T11:07:34.032Z,505
2017-09-12T11:08:34.711Z,460
2017-09-12T11:09:34.432Z,420
2017-09-12T11:10:35.136Z,365
2017-09-12T11:11:35.474Z,320
2017-09-12T11:12:35.181Z,300
2017-09-12T11:13:34.616Z,295
2017-09-12T11:14:34.646Z,285
2017-09-12T11:15:35.603Z,270
2017-09-12T11:16:35.646Z,230
2017-09-12T11:17:35.376Z,205
2017-09-12T11:18:35.412Z,180
2017-09-12T11:19:35.481Z,155
2017-09-12T11:20:34.877Z,130
2017-09-12T11:21:35.228Z,125
2017-09-12T11:22:35.613Z,135
2017-09-12T11:23:35.976Z,145
2017-09-12T11:24:36.061Z,155
2017-09-12T11:25:36.430Z,205
2017-09-12T11:26:37.004Z,280
2017-09-12T11:27:36.520Z,340
2017-09-12T11:28:36.569Z,360
2017-09-12T11:29:37.230Z,380
2017-09-12T11:30:37.313Z,350
2017-09-12T11:31:37.614Z,275
2017-09-12T11:32:37.747Z,210
2017-09-12T11:33:37.740Z,190
2017-09-12T11:34:37.419Z,200
2017-09-12T11:35:38.039Z,215
2017-09-12T11:36:37.812Z,220
2017-09-12T11:37:38.185Z,240
2017-09-12T11:38:38.274Z,265
2017-09-12T11:39:38.242Z,350
2017-09-12T11:40:37.927Z,420
2017-09-12T11:41:38.300Z,455
2017-09-12T11:42:38.713Z,470
2017-09-12T11:43:38.388Z,490
2017-09-12T11:44:39.132Z,520
2017-09-12T11:45:39.421Z,555
2017-09-12T11:46:39.144Z,575
2017-09-12T11:47:39.194Z,585
2017-09-12T11:48:39.214Z,550
2017-09-12T11:49:39.256Z,520
2017-09-12T11:50:39.287Z,480
2017-09-12T11:51:40.012Z,460
2017-09-12T11:52:40.088Z,400
2017-09-12T11:53:39.794Z,330
2017-09-12T11:54:39.828Z,300
2017-09-12T11:55:39.611Z,290
2017-09-12T11:56:40.310Z,295
2017-09-12T11:57:40.615Z,320
2017-09-12T11:58:40.341Z,320
2017-09-12T11:59:41.005Z,315
2017-09-12T12:00:40.748Z,340
2017-09-12T12:01:41.381Z,380
2017-09-12T12:02:41.231Z,395
2017-09-12T12:03:41.953Z,405
2017-09-12T12:04:41.644Z,405
2017-09-12T12:05:42.031Z,400
2017-09-12T12:06:41.436Z,395
2017-09-12T12:07:41.466Z,385
2017-09-12T12:08:41.519Z,370
2017-09-12T12:09:41.896Z,350
2017-09-12T12:10:41.923Z,335
2017-09-12T12:11:42.567Z,310
2017-09-12T12:12:42.604Z,300
2017-09-12T12:13:42.761Z,305
2017-09-12T12:14:43.034Z,295
2017-09-12T12:15:42.800Z,270
2017-09-12T12:16:42.732Z,245
2017-09-12T12:17:42.817Z,220
2017-09-12T12:18:42.572Z,205
2017-09-12T12:19:42.987Z,190
2017-09-12T12:20:43.295Z,180
2017-09-12T12:21:43.716Z,185
2017-09-12T12:22:43.119Z,205
2017-09-12T12:23:44.134Z,225
2017-09-12T12:24:43.867Z,245
2017-09-12T12:25:43.896Z,255
2017-09-12T12:26:44.219Z,240
2017-09-12T12:27:44.587Z,235
2017-09-12T12:28:44.615Z,235
2017-09-12T12:29:44.611Z,235
2017-09-12T12:30:44.366Z,215
2017-09-12T12:31:44.372Z,195
2017-09-12T12:32:44.768Z,170
2017-09-12T12:33:44.779Z,145
2017-09-12T12:34:44.216Z,125
2017-09-12T12:35:44.869Z,115
2017-09-12T12:36:45.212Z,110
2017-09-12T12:37:45.269Z,110
2017-09-12T12:38:45.268Z,110
2017-09-12T12:39:45.010Z,115
2017-09-12T12:40:45.041Z,120
2017-09-12T12:41:45.119Z,130
2017-09-12T12:42:45.748Z,135
2017-09-12T12:43:45.466Z,150
2017-09-12T12:44:45.687Z,160
2017-09-12T12:45:45.562Z,165
2017-09-12T12:46:46.179Z,175
2017-09-12T12:47:45.306Z,185
2017-09-12T12:48:46.265Z,190
2017-09-12T12:49:45.414Z,200
2017-09-12T12:50:46.380Z,200
2017-09-12T12:51:45.508Z,200
2017-09-12T12:52:45.512Z,210
2017-09-12T12:53:46.217Z,200
2017-09-12T12:54:45.970Z,185
2017-09-12T12:55:46.017Z,170
2017-09-12T12:56:46.396Z,160
2017-09-12T12:57:46.790Z,150
2017-09-12T12:58:46.466Z,150
2017-09-12T12:59:47.448Z,135
2017-09-12T13:00:47.160Z,100
2017-09-12T13:01:47.503Z,80
2017-09-12T13:02:47.235Z,85
2017-09-12T13:03:47.271Z,95
2017-09-12T13:04:47.916Z,85
2017-09-12T13:05:47.956Z,85
2017-09-12T13:06:47.672Z,105
2017-09-12T13:07:48.039Z,110
2017-09-12T13:08:48.068Z,100
2017-09-12T13:09:47.789Z,100
2017-09-12T13:10:47.805Z,110
2017-09-12T13:11:47.573Z,125
2017-09-12T13:12:48.548Z,130
2017-09-12T13:13:48.285Z,135
2017-09-12T13:14:48.636Z,145
2017-09-12T13:15:48.040Z,150
2017-09-12T13:16:49.009Z,185
2017-09-12T13:17:48.678Z,210
2017-09-12T13:18:49.010Z,220
2017-09-12T13:19:48.783Z,260
2017-09-12T13:20:49.108Z,300
2017-09-12T13:21:49.549Z,335
2017-09-12T13:22:49.204Z,350
2017-09-12T13:23:49.804Z,375
2017-09-12T13:24:48.952Z,380
2017-09-12T13:25:49.673Z,345
2017-09-12T13:26:50.046Z,335
2017-09-12T13:27:50.343Z,345
2017-09-12T13:28:50.077Z,350
2017-09-12T13:29:50.504Z,345
2017-09-12T13:30:50.204Z,320
2017-09-12T13:31:50.195Z,300
2017-09-12T13:32:49.919Z,260
2017-09-12T13:33:50.282Z,230
2017-09-12T13:34:49.977Z,205
2017-09-12T13:35:50.736Z,180
2017-09-12T13:36:50.765Z,165
2017-09-12T13:37:51.046Z,160
2017-09-12T13:38:51.128Z,155
2017-09-12T13:39:50.842Z,155
2017-09-12T13:40:50.902Z,150
2017-09-12T13:41:50.325Z,150
2017-09-12T13:42:50.643Z,150
2017-09-12T13:43:51.057Z,150
2017-09-12T13:44:51.377Z,145
2017-09-12T13:45:51.079Z,145
2017-09-12T13:46:51.445Z,145
2017-09-12T13:47:51.503Z,145
2017-09-12T13:48:51.534Z,145
2017-09-12T13:49:51.539Z,140
2017-09-12T13:50:51.615Z,140
2017-09-12T13:51:51.650Z,145
2017-09-12T13:52:51.334Z,145
2017-09-12T13:53:52.122Z,150
2017-09-12T13:54:52.081Z,155
2017-09-12T13:55:51.786Z,140
2017-09-12T13:56:51.894Z,145
2017-09-12T13:57:52.632Z,140
2017-09-12T13:58:52.255Z,130
2017-09-12T13:59:53.013Z,135
2017-09-12T14:00:52.972Z,140
2017-09-12T14:01:52.829Z,135
2017-09-12T14:02:53.989Z,150
2017-09-12T14:03:53.510Z,150
2017-09-12T14:04:53.541Z,155
2017-09-12T14:05:54.231Z,160